Time;durP1;ratioP1;P1;durP2;ratioP2;P2;SDS_P1;SDS_P2;PMS_P1;PMS_P2;Temp;Humidity;BMP_temperature;BMP_pressure;BME280_temperature;BME280_humidity;BME280_pressure;Samples;Min_cycle;Max_cycle;Signal;HPM_P1;HPM_P2
2024/03/23 00:01:34;;;;;;;27.38;6.25;;;6.90;99.90;;;;;;5076248;28;21097;-64
2024/03/23 00:04:01;;;;;;;31.25;6.55;;;6.90;99.90;;;;;;5080317;28;20050;-64
2024/03/23 00:06:27;;;;;;;30.38;5.22;;;6.90;99.90;;;;;;5077742;28;20048;-64
2024/03/23 00:08:54;;;;;;;23.25;5.93;;;6.80;99.90;;;;;;5096794;28;20481;-64
2024/03/23 00:11:21;;;;;;;27.27;4.97;;;6.80;99.90;;;;;;5078202;28;20049;-64
2024/03/23 00:13:48;;;;;;;35.53;6.45;;;6.80;99.90;;;;;;5094523;28;20040;-64
2024/03/23 00:16:14;;;;;;;22.33;5.97;;;6.80;99.90;;;;;;5106999;27;20036;-64
2024/03/23 00:18:41;;;;;;;27.67;5.22;;;6.80;99.90;;;;;;5093454;28;20042;-64
2024/03/23 00:21:09;;;;;;;28.15;5.13;;;6.80;99.90;;;;;;5091234;28;20044;-64
2024/03/23 00:23:35;;;;;;;28.60;5.35;;;6.80;99.90;;;;;;5098075;28;20036;-64
2024/03/23 00:26:02;;;;;;;28.13;6.25;;;6.80;99.90;;;;;;5077975;28;20041;-64
2024/03/23 00:28:28;;;;;;;29.50;5.80;;;6.80;99.90;;;;;;5076298;28;21186;-64
2024/03/23 00:30:55;;;;;;;22.42;4.82;;;6.80;99.90;;;;;;5066234;28;20048;-64
2024/03/23 00:33:21;;;;;;;33.70;6.13;;;6.70;99.90;;;;;;5079790;28;20048;-64
2024/03/23 00:35:48;;;;;;;30.45;5.15;;;6.70;99.90;;;;;;5075469;28;20486;-64
2024/03/23 00:38:15;;;;;;;31.42;5.45;;;6.70;99.90;;;;;;5093616;28;20397;-64
2024/03/23 00:40:41;;;;;;;39.90;6.15;;;6.70;99.90;;;;;;5066208;28;20490;-64
2024/03/23 00:43:08;;;;;;;28.17;5.50;;;6.60;99.90;;;;;;5079643;28;20047;-64
2024/03/23 00:45:35;;;;;;;30.40;5.90;;;6.70;99.90;;;;;;5076796;28;20050;-64
2024/03/23 00:48:03;;;;;;;28.55;6.22;;;6.70;99.90;;;;;;5080011;28;20061;-65
2024/03/23 00:50:30;;;;;;;29.58;5.40;;;6.70;99.90;;;;;;5074206;28;21496;-64
2024/03/23 00:52:57;;;;;;;25.50;4.32;;;6.60;99.90;;;;;;5091774;28;20126;-64
2024/03/23 00:55:23;;;;;;;30.65;6.03;;;6.60;99.90;;;;;;5089373;28;20039;-64
2024/03/23 00:57:48;;;;;;;30.17;5.55;;;6.50;99.90;;;;;;5092821;28;20035;-64
2024/03/23 01:00:15;;;;;;;25.98;5.85;;;6.60;99.90;;;;;;5092007;28;20068;-64
2024/03/23 01:02:41;;;;;;;28.50;5.53;;;6.50;99.90;;;;;;5082337;28;20042;-64
2024/03/23 01:05:07;;;;;;;22.13;5.70;;;6.60;99.90;;;;;;5095598;28;20525;-64
2024/03/23 01:07:32;;;;;;;25.15;6.07;;;6.40;99.90;;;;;;5063949;28;20127;-64
2024/03/23 01:09:58;;;;;;;22.83;4.22;;;6.50;99.90;;;;;;5085869;28;20052;-64
2024/03/23 01:12:23;;;;;;;25.13;5.25;;;6.40;99.90;;;;;;5096096;28;20035;-64
2024/03/23 01:14:49;;;;;;;27.02;5.07;;;6.30;99.90;;;;;;5096166;28;20068;-64
2024/03/23 01:17:15;;;;;;;29.85;5.43;;;6.40;99.90;;;;;;5065273;28;20046;-64
2024/03/23 01:19:41;;;;;;;29.60;6.50;;;6.30;99.90;;;;;;5099627;28;20468;-64
2024/03/23 01:22:07;;;;;;;26.90;5.18;;;6.30;99.90;;;;;;5081600;28;20042;-64
2024/03/23 01:24:33;;;;;;;23.35;5.22;;;6.30;99.90;;;;;;5093816;28;20070;-64
2024/03/23 01:26:58;;;;;;;33.47;6.03;;;6.20;99.90;;;;;;5084221;28;20035;-64
2024/03/23 01:29:24;;;;;;;24.08;4.53;;;6.10;99.90;;;;;;5083515;28;20528;-64
2024/03/23 01:31:49;;;;;;;20.40;4.28;;;6.20;99.90;;;;;;5094155;28;20093;-64
2024/03/23 01:34:15;;;;;;;22.08;4.03;;;6.10;99.90;;;;;;5081948;28;20151;-64
2024/03/23 01:36:41;;;;;;;28.88;5.10;;;6.10;99.90;;;;;;5096038;28;20032;-64
2024/03/23 01:39:15;;;;;;;23.52;3.83;;;6.10;99.90;;;;;;5080090;28;20154;-64
2024/03/23 01:41:42;;;;;;;23.80;4.38;;;6.10;99.90;;;;;;5062330;28;20040;-64
2024/03/23 01:44:08;;;;;;;22.60;5.18;;;6.00;99.90;;;;;;5078916;28;20107;-64
2024/03/23 01:46:35;;;;;;;26.85;4.45;;;6.00;99.90;;;;;;5061289;28;20044;-64
2024/03/23 01:49:01;;;;;;;20.95;4.43;;;5.90;99.90;;;;;;5061038;28;20043;-64
2024/03/23 01:51:35;;;;;;;23.77;4.07;;;5.90;99.90;;;;;;5079161;28;20357;-64
2024/03/23 01:54:03;;;;;;;20.88;4.68;;;5.90;99.90;;;;;;5057870;28;20032;-64
2024/03/23 01:56:35;;;;;;;28.77;5.63;;;5.80;99.90;;;;;;5078347;28;20414;-64
2024/03/23 01:59:15;;;;;;;26.58;4.15;;;5.80;99.90;;;;;;5074436;28;20028;-64
2024/03/23 02:01:41;;;;;;;21.58;3.92;;;5.80;99.90;;;;;;5097014;28;20077;-64
2024/03/23 02:04:06;;;;;;;24.42;4.55;;;5.70;99.90;;;;;;5060351;28;20047;-64
2024/03/23 02:06:40;;;;;;;20.60;4.75;;;5.80;99.90;;;;;;5059133;28;20044;-64
2024/03/23 02:09:08;;;;;;;22.98;4.40;;;5.80;99.90;;;;;;5058681;28;20074;-64
2024/03/23 02:11:36;;;;;;;23.23;4.88;;;5.80;99.90;;;;;;5075796;28;20510;-64
2024/03/23 02:14:07;;;;;;;22.52;5.03;;;5.70;99.90;;;;;;5043701;28;20040;-65
2024/03/23 02:16:33;;;;;;;28.70;5.10;;;5.70;99.90;;;;;;5075382;28;20032;-64
2024/03/23 02:18:58;;;;;;;23.15;4.32;;;5.60;99.90;;;;;;5092379;28;20038;-64
2024/03/23 02:21:24;;;;;;;25.85;5.25;;;5.60;99.90;;;;;;5078737;28;20037;-64
2024/03/23 02:23:50;;;;;;;20.88;4.65;;;5.60;99.90;;;;;;5076695;28;20041;-64
2024/03/23 02:26:16;;;;;;;25.80;4.68;;;5.60;99.90;;;;;;5076358;28;20478;-64
2024/03/23 02:28:42;;;;;;;21.98;4.82;;;5.60;99.90;;;;;;5077407;28;20048;-64
2024/03/23 02:31:08;;;;;;;28.20;4.93;;;5.50;99.90;;;;;;5076044;28;20047;-64
2024/03/23 02:33:34;;;;;;;18.60;4.82;;;5.50;99.90;;;;;;5062145;28;20409;-64
2024/03/23 02:36:00;;;;;;;23.88;3.97;;;5.40;99.90;;;;;;5077815;28;20036;-64
2024/03/23 02:38:25;;;;;;;26.55;4.65;;;5.40;99.90;;;;;;5077062;28;20040;-64
2024/03/23 02:40:51;;;;;;;20.02;4.70;;;5.30;99.90;;;;;;5078798;28;20090;-64
2024/03/23 02:43:16;;;;;;;19.25;5.65;;;5.30;99.90;;;;;;5062531;28;20029;-64
2024/03/23 02:45:42;;;;;;;20.73;4.28;;;5.30;99.90;;;;;;5051896;28;20079;-64
2024/03/23 02:48:08;;;;;;;19.85;4.35;;;5.30;99.90;;;;;;5058147;28;20132;-64
2024/03/23 02:50:33;;;;;;;20.67;4.05;;;5.30;99.90;;;;;;5057720;28;20044;-64
2024/03/23 02:53:00;;;;;;;26.08;4.65;;;5.30;99.90;;;;;;5061685;28;20495;-64
2024/03/23 02:55:25;;;;;;;23.45;3.75;;;5.30;99.90;;;;;;5074800;28;20040;-64
2024/03/23 02:57:51;;;;;;;24.92;3.97;;;5.30;99.90;;;;;;5059462;28;20044;-64
2024/03/23 03:00:16;;;;;;;24.05;4.28;;;5.20;99.90;;;;;;5061593;28;20154;-64
2024/03/23 03:02:42;;;;;;;21.88;4.45;;;5.20;99.90;;;;;;5058864;28;20490;-64
2024/03/23 03:05:08;;;;;;;18.85;3.75;;;5.20;99.90;;;;;;5074829;28;20048;-64
2024/03/23 03:07:34;;;;;;;24.80;4.85;;;5.20;99.90;;;;;;5056275;28;20063;-64
2024/03/23 03:10:00;;;;;;;18.38;4.90;;;5.10;99.90;;;;;;5057252;28;20033;-64
2024/03/23 03:12:25;;;;;;;21.20;4.10;;;5.10;99.90;;;;;;5059215;28;20055;-64
2024/03/23 03:14:51;;;;;;;23.73;5.57;;;5.20;99.90;;;;;;5052807;28;20123;-64
2024/03/23 03:17:16;;;;;;;26.85;4.05;;;5.20;99.90;;;;;;5056148;28;20029;-64
2024/03/23 03:19:42;;;;;;;18.35;3.50;;;5.10;99.90;;;;;;5076857;28;20115;-64
2024/03/23 03:22:08;;;;;;;19.95;3.65;;;5.20;99.90;;;;;;5073611;28;20067;-64
2024/03/23 03:24:34;;;;;;;19.25;3.30;;;5.10;99.90;;;;;;5071779;28;20036;-64
2024/03/23 03:26:59;;;;;;;21.00;5.05;;;5.10;99.90;;;;;;5060105;28;20509;-64
2024/03/23 03:29:25;;;;;;;21.52;3.58;;;5.10;99.90;;;;;;5058663;28;20051;-64
2024/03/23 03:31:51;;;;;;;15.75;3.25;;;5.10;99.90;;;;;;5068914;28;20028;-64
2024/03/23 03:34:16;;;;;;;14.98;2.60;;;5.10;99.90;;;;;;5059296;28;20066;-64
2024/03/23 03:36:42;;;;;;;20.77;4.22;;;5.10;99.90;;;;;;5088662;28;20037;-64
2024/03/23 03:39:15;;;;;;;15.70;3.08;;;5.10;99.90;;;;;;5058389;28;20052;-64
2024/03/23 03:41:40;;;;;;;18.90;3.67;;;5.00;99.90;;;;;;5057867;28;20048;-64
2024/03/23 03:44:06;;;;;;;20.13;3.42;;;5.00;99.90;;;;;;5056886;28;20050;-64
2024/03/23 03:46:32;;;;;;;24.10;3.53;;;5.00;99.90;;;;;;5075941;28;20064;-64
2024/03/23 03:48:57;;;;;;;21.05;4.03;;;5.00;99.90;;;;;;5072934;28;20036;-64
2024/03/23 03:51:23;;;;;;;22.63;3.53;;;5.00;99.90;;;;;;5057109;28;20035;-64
2024/03/23 03:53:48;;;;;;;22.70;4.15;;;5.00;99.90;;;;;;5051765;28;20049;-64
2024/03/23 03:56:14;;;;;;;18.20;3.03;;;4.90;99.90;;;;;;5074675;28;20040;-64
2024/03/23 03:58:40;;;;;;;13.13;2.53;;;4.90;99.90;;;;;;5056418;28;20478;-64
2024/03/23 04:01:05;;;;;;;23.13;4.30;;;4.90;99.90;;;;;;5073018;28;20112;-64
2024/03/23 04:03:31;;;;;;;17.98;3.90;;;4.90;99.90;;;;;;5075273;28;21308;-64
2024/03/23 04:05:57;;;;;;;25.80;4.07;;;4.90;99.90;;;;;;5057073;28;20439;-64
2024/03/23 04:08:23;;;;;;;23.98;4.05;;;4.90;99.90;;;;;;5056361;28;20058;-64
2024/03/23 04:10:49;;;;;;;17.08;3.08;;;4.80;99.90;;;;;;5074907;28;20078;-64
2024/03/23 04:13:15;;;;;;;18.98;4.35;;;4.80;99.90;;;;;;5076018;28;20068;-64
2024/03/23 04:15:40;;;;;;;20.75;3.20;;;4.80;99.90;;;;;;5073543;28;20029;-64
2024/03/23 04:18:06;;;;;;;24.25;3.55;;;4.80;99.90;;;;;;5071444;28;20041;-64
2024/03/23 04:20:32;;;;;;;16.88;2.90;;;4.80;99.90;;;;;;5074205;28;20032;-64
2024/03/23 04:22:59;;;;;;;18.13;3.88;;;4.80;99.90;;;;;;5055185;28;20041;-64
2024/03/23 04:25:25;;;;;;;20.77;4.53;;;4.70;99.90;;;;;;5072783;28;20398;-64
2024/03/23 04:27:51;;;;;;;19.80;5.57;;;4.70;99.90;;;;;;5075868;28;20039;-64
2024/03/23 04:30:17;;;;;;;20.15;4.15;;;4.70;99.90;;;;;;5059341;28;20118;-64
2024/03/23 04:32:43;;;;;;;13.05;2.92;;;4.70;99.90;;;;;;5059235;28;20082;-64
2024/03/23 04:35:12;;;;;;;24.23;3.72;;;4.70;99.90;;;;;;5073229;28;20471;-64
2024/03/23 04:37:41;;;;;;;23.05;3.90;;;4.70;99.90;;;;;;5074192;28;20055;-64
2024/03/23 04:40:07;;;;;;;21.20;3.33;;;4.60;99.90;;;;;;5070192;28;20131;-64
2024/03/23 04:42:33;;;;;;;24.10;4.10;;;4.60;99.90;;;;;;5059044;28;20115;-63
2024/03/23 04:44:59;;;;;;;23.05;3.50;;;4.60;99.90;;;;;;5055468;28;20123;-64
2024/03/23 04:47:25;;;;;;;16.13;3.28;;;4.60;99.90;;;;;;5069894;28;20043;-64
2024/03/23 04:49:51;;;;;;;23.88;4.75;;;4.60;99.90;;;;;;5054439;28;20163;-64
2024/03/23 04:52:17;;;;;;;19.50;3.17;;;4.60;99.90;;;;;;5073483;28;20478;-64
2024/03/23 04:54:43;;;;;;;14.27;2.85;;;4.50;99.90;;;;;;5055020;28;20068;-64
2024/03/23 04:57:09;;;;;;;22.13;4.28;;;4.60;99.90;;;;;;5058825;28;20470;-64
2024/03/23 04:59:34;;;;;;;14.90;2.85;;;4.60;99.90;;;;;;5074213;28;20120;-64
2024/03/23 05:02:00;;;;;;;17.17;3.28;;;4.60;99.90;;;;;;5071192;28;20037;-64
2024/03/23 05:04:26;;;;;;;17.60;3.05;;;4.50;99.90;;;;;;5086776;28;20101;-64
2024/03/23 05:06:52;;;;;;;24.77;4.07;;;4.50;99.90;;;;;;5072427;28;20047;-64
2024/03/23 05:09:17;;;;;;;20.42;3.60;;;4.50;99.90;;;;;;5088958;28;20047;-64
2024/03/23 05:11:43;;;;;;;15.05;3.22;;;4.50;99.90;;;;;;5056820;28;20101;-64
2024/03/23 05:14:13;;;;;;;24.02;3.70;;;4.50;99.90;;;;;;5071876;28;20082;-64
2024/03/23 05:16:39;;;;;;;16.63;2.97;;;4.50;99.90;;;;;;5055507;28;20084;-63
2024/03/23 05:19:08;;;;;;;13.63;2.90;;;4.50;99.90;;;;;;5075855;28;20063;-64
2024/03/23 05:21:33;;;;;;;16.95;3.42;;;4.50;99.90;;;;;;5071626;28;20059;-64
2024/03/23 05:23:59;;;;;;;12.07;2.70;;;4.50;99.90;;;;;;5074865;28;20040;-64
2024/03/23 05:26:25;;;;;;;18.73;2.60;;;4.50;99.90;;;;;;5074833;28;20040;-64
2024/03/23 05:28:50;;;;;;;17.33;3.60;;;4.50;99.90;;;;;;5074102;28;20078;-64
2024/03/23 05:31:26;;;;;;;15.02;2.83;;;4.50;99.90;;;;;;5075375;28;20052;-64
2024/03/23 05:33:52;;;;;;;17.13;3.03;;;4.50;99.90;;;;;;5069784;28;20043;-64
2024/03/23 05:36:18;;;;;;;26.00;4.28;;;4.50;99.90;;;;;;5055352;28;20041;-64
2024/03/23 05:38:44;;;;;;;19.08;3.50;;;4.40;99.90;;;;;;5052841;28;20086;-64
2024/03/23 05:41:10;;;;;;;16.17;3.30;;;4.50;99.90;;;;;;5074264;28;20478;-64
2024/03/23 05:43:35;;;;;;;22.58;3.47;;;4.50;99.90;;;;;;5072043;28;20038;-64
2024/03/23 05:46:05;;;;;;;16.40;2.63;;;4.50;99.90;;;;;;5072489;28;20111;-64
2024/03/23 05:48:31;;;;;;;21.13;5.40;;;4.50;99.90;;;;;;5075951;28;20040;-64
2024/03/23 05:50:57;;;;;;;17.63;2.63;;;4.60;99.90;;;;;;5075610;28;20146;-64
2024/03/23 05:53:23;;;;;;;17.35;2.50;;;4.70;99.90;;;;;;5075739;28;20034;-64
2024/03/23 05:55:50;;;;;;;24.42;4.47;;;5.00;99.90;;;;;;5074156;28;20044;-64
2024/03/23 05:58:18;;;;;;;17.48;2.95;;;5.20;99.90;;;;;;5079548;28;20042;-64
2024/03/23 06:00:44;;;;;;;15.10;2.97;;;5.40;99.90;;;;;;5075079;28;20370;-64
2024/03/23 06:03:12;;;;;;;19.35;2.80;;;5.70;99.90;;;;;;5060923;28;20036;-65
2024/03/23 06:05:38;;;;;;;13.10;2.22;;;6.00;99.90;;;;;;5062725;28;20072;-65
2024/03/23 06:08:05;;;;;;;8.52;2.20;;;6.30;99.90;;;;;;5060054;28;20044;-65
2024/03/23 06:10:31;;;;;;;16.45;2.30;;;6.30;99.90;;;;;;5047398;28;20542;-64
2024/03/23 06:12:58;;;;;;;12.60;2.65;;;6.20;99.90;;;;;;5062938;28;20064;-65
2024/03/23 06:15:25;;;;;;;7.43;1.33;;;6.20;99.90;;;;;;5079295;28;20090;-64
2024/03/23 06:17:50;;;;;;;11.48;1.40;;;6.20;99.90;;;;;;5079564;28;20036;-64
2024/03/23 06:20:16;;;;;;;8.13;1.25;;;6.10;99.90;;;;;;5078291;28;20042;-64
2024/03/23 06:22:41;;;;;;;7.40;1.75;;;6.00;99.90;;;;;;5076833;28;20028;-64
2024/03/23 06:25:08;;;;;;;5.90;1.40;;;6.00;99.90;;;;;;5058722;28;20044;-65
2024/03/23 06:27:33;;;;;;;6.35;0.88;;;5.90;99.90;;;;;;5061922;28;20582;-64
2024/03/23 06:30:00;;;;;;;5.03;0.68;;;5.90;99.90;;;;;;5078334;28;20115;-64
2024/03/23 06:32:27;;;;;;;3.15;0.65;;;5.80;99.90;;;;;;5060542;28;20045;-65
2024/03/23 06:34:53;;;;;;;4.38;0.60;;;5.70;99.90;;;;;;5073928;28;20040;-65
2024/03/23 06:37:18;;;;;;;7.40;0.65;;;5.70;99.90;;;;;;5074243;28;20049;-65
2024/03/23 06:39:46;;;;;;;4.47;0.70;;;5.70;99.90;;;;;;5056882;28;20074;-64
2024/03/23 06:42:12;;;;;;;4.03;0.80;;;5.70;99.90;;;;;;5055989;28;20041;-65
2024/03/23 06:44:37;;;;;;;2.92;0.60;;;5.60;99.90;;;;;;5072001;28;20051;-64
2024/03/23 06:47:03;;;;;;;8.77;1.10;;;5.60;99.90;;;;;;5052996;28;20394;-65
2024/03/23 06:49:29;;;;;;;6.90;1.27;;;5.60;99.90;;;;;;5056216;28;20040;-64
2024/03/23 06:51:54;;;;;;;7.70;2.03;;;5.60;99.90;;;;;;5058973;28;20426;-65
2024/03/23 06:54:20;;;;;;;11.07;2.22;;;5.60;99.90;;;;;;5075456;28;20068;-65
2024/03/23 06:56:46;;;;;;;5.68;1.27;;;5.70;99.90;;;;;;5053589;28;20036;-63
2024/03/23 06:59:15;;;;;;;11.77;3.33;;;5.70;99.90;;;;;;5058688;28;20036;-64
2024/03/23 07:01:40;;;;;;;10.25;1.35;;;5.80;99.90;;;;;;5088418;28;20056;-63
2024/03/23 07:04:06;;;;;;;10.20;2.25;;;5.80;99.90;;;;;;5058779;28;20163;-65
2024/03/23 07:06:31;;;;;;;10.52;1.85;;;5.70;99.90;;;;;;5057247;28;20048;-63
2024/03/23 07:08:57;;;;;;;10.52;1.70;;;5.80;99.90;;;;;;5073882;28;20482;-63
2024/03/23 07:11:23;;;;;;;12.43;1.45;;;5.80;99.90;;;;;;5073780;28;20043;-63
2024/03/23 07:13:56;;;;;;;11.95;2.05;;;5.80;99.90;;;;;;5075207;28;20029;-63
2024/03/23 07:16:22;;;;;;;9.10;1.45;;;6.10;99.90;;;;;;5050345;28;20478;-63
2024/03/23 07:18:49;;;;;;;13.30;1.77;;;6.40;99.90;;;;;;5075350;28;20072;-63
2024/03/23 07:21:15;;;;;;;14.95;3.20;;;6.60;99.90;;;;;;5069249;28;20043;-63
2024/03/23 07:23:47;;;;;;;7.95;1.48;;;6.70;99.90;;;;;;5057903;28;20036;-64
2024/03/23 07:26:13;;;;;;;12.38;2.05;;;6.70;99.90;;;;;;5057891;28;20046;-64
2024/03/23 07:28:43;;;;;;;13.07;1.80;;;6.60;99.90;;;;;;5057210;28;20128;-64
2024/03/23 07:31:11;;;;;;;8.52;1.77;;;6.50;99.90;;;;;;5052175;28;20056;-64
2024/03/23 07:33:45;;;;;;;7.25;1.55;;;6.40;99.90;;;;;;5071105;28;20039;-64
2024/03/23 07:36:11;;;;;;;4.65;0.77;;;6.30;99.90;;;;;;5053948;28;20056;-63
2024/03/23 07:38:37;;;;;;;12.15;1.50;;;6.10;99.90;;;;;;5074523;28;20044;-63
2024/03/23 07:41:05;;;;;;;4.97;1.25;;;6.10;99.90;;;;;;5055983;28;20094;-63
2024/03/23 07:43:31;;;;;;;5.07;0.63;;;6.10;99.90;;;;;;5070407;28;20048;-64
2024/03/23 07:45:56;;;;;;;5.75;1.70;;;6.00;99.90;;;;;;5056917;28;20479;-63
2024/03/23 07:48:25;;;;;;;10.23;1.60;;;6.20;99.90;;;;;;5056924;28;20044;-63
2024/03/23 07:51:21;;;;;;;8.70;1.45;;;6.20;99.90;;;;;;5076957;28;20078;-64
2024/03/23 07:53:48;;;;;;;5.93;1.15;;;6.10;99.90;;;;;;5064664;28;20041;-64
2024/03/23 07:56:15;;;;;;;4.82;0.80;;;6.10;99.90;;;;;;5056623;28;20059;-64
2024/03/23 07:58:41;;;;;;;9.07;1.13;;;6.00;99.90;;;;;;5055198;28;20085;-64
2024/03/23 08:01:09;;;;;;;4.60;0.80;;;5.90;99.90;;;;;;5071408;28;20040;-64
2024/03/23 08:03:35;;;;;;;6.65;1.33;;;5.90;99.90;;;;;;5074429;28;20181;-64
2024/03/23 08:06:27;;;;;;;7.07;1.60;;;5.90;99.90;;;;;;5074335;28;20547;-64
2024/03/23 08:09:02;;;;;;;8.30;1.17;;;5.80;99.90;;;;;;5067934;28;20132;-64
2024/03/23 08:11:32;;;;;;;9.32;1.48;;;5.80;99.90;;;;;;5054241;28;20037;-63
2024/03/23 08:13:58;;;;;;;11.13;1.98;;;5.70;99.90;;;;;;5056929;28;20044;-64
2024/03/23 08:16:24;;;;;;;9.52;1.35;;;5.70;99.90;;;;;;5055202;28;20545;-64
2024/03/23 08:18:53;;;;;;;6.20;1.10;;;5.60;99.90;;;;;;5055189;28;20040;-64
2024/03/23 08:21:19;;;;;;;7.57;1.02;;;5.60;99.90;;;;;;5057232;28;20066;-63
2024/03/23 08:23:45;;;;;;;7.47;0.85;;;5.70;99.90;;;;;;5073863;28;20032;-64
2024/03/23 08:26:12;;;;;;;5.70;1.05;;;5.60;99.90;;;;;;5059142;28;20093;-64
2024/03/23 08:28:38;;;;;;;5.72;1.00;;;5.60;99.90;;;;;;5073645;28;20032;-64
2024/03/23 08:31:12;;;;;;;5.40;0.70;;;5.70;99.90;;;;;;5071869;28;20070;-63
2024/03/23 08:33:39;;;;;;;4.18;0.73;;;5.80;99.90;;;;;;5049286;28;20035;-64
2024/03/23 08:36:09;;;;;;;5.55;1.15;;;6.00;99.90;;;;;;5073485;28;20124;-63
2024/03/23 08:38:35;;;;;;;4.93;0.90;;;6.30;99.90;;;;;;5075134;28;20058;-64
2024/03/23 08:41:05;;;;;;;8.80;1.35;;;6.50;99.90;;;;;;5088712;28;20044;-63
2024/03/23 08:43:39;;;;;;;7.47;1.42;;;6.60;99.90;;;;;;5057860;28;20462;-64
2024/03/23 08:46:07;;;;;;;7.55;1.35;;;6.60;99.90;;;;;;5074389;28;20068;-64
2024/03/23 08:48:48;;;;;;;10.25;0.98;;;6.80;99.90;;;;;;5072408;28;20051;-64
2024/03/23 08:51:16;;;;;;;11.10;1.85;;;7.00;99.90;;;;;;5059455;28;20048;-64
2024/03/23 08:53:42;;;;;;;11.80;1.92;;;7.40;99.90;;;;;;5059784;28;20036;-64
2024/03/23 08:56:08;;;;;;;7.70;1.70;;;7.60;99.90;;;;;;5058498;28;20142;-64
2024/03/23 08:58:35;;;;;;;8.93;1.65;;;7.60;99.90;;;;;;5055535;28;20040;-64
2024/03/23 09:01:15;;;;;;;6.20;1.48;;;7.70;99.90;;;;;;5037498;28;20044;-63
2024/03/23 09:03:41;;;;;;;11.65;1.77;;;7.60;99.90;;;;;;5056271;28;20036;-64
2024/03/23 09:06:12;;;;;;;6.55;1.20;;;7.60;99.90;;;;;;5073109;28;20140;-64
2024/03/23 09:08:37;;;;;;;11.65;2.30;;;7.40;99.90;;;;;;5058508;28;20032;-64
2024/03/23 09:11:08;;;;;;;8.63;1.63;;;7.40;99.90;;;;;;5056784;28;20051;-64
2024/03/23 09:13:34;;;;;;;9.60;1.98;;;7.40;99.90;;;;;;5056384;28;20035;-64
2024/03/23 09:16:00;;;;;;;12.27;1.88;;;7.30;99.90;;;;;;5091194;28;20477;-63
2024/03/23 09:18:25;;;;;;;8.85;1.33;;;7.30;99.90;;;;;;5054884;28;20037;-64
2024/03/23 09:20:53;;;;;;;12.15;1.95;;;7.30;99.90;;;;;;5057136;28;20410;-64
2024/03/23 09:23:19;;;;;;;10.65;1.90;;;7.40;99.90;;;;;;5072730;28;20056;-64
2024/03/23 09:25:44;;;;;;;8.02;1.60;;;7.80;99.90;;;;;;5055889;28;20035;-63
2024/03/23 09:28:10;;;;;;;11.25;1.80;;;8.30;99.90;;;;;;5078359;28;20089;-64
2024/03/23 09:30:42;;;;;;;12.38;2.10;;;8.60;99.90;;;;;;5058254;28;20036;-64
2024/03/23 09:33:08;;;;;;;12.85;2.15;;;8.70;99.90;;;;;;5065022;28;20044;-64
2024/03/23 09:35:40;;;;;;;15.20;2.08;;;8.70;99.90;;;;;;5083925;28;20410;-64
2024/03/23 09:38:09;;;;;;;11.52;2.15;;;8.50;99.90;;;;;;5060248;28;20551;-64
2024/03/23 09:40:45;;;;;;;13.80;2.65;;;8.50;99.90;;;;;;5076787;28;20063;-64
2024/03/23 09:43:11;;;;;;;12.65;2.70;;;8.40;99.90;;;;;;5060073;28;20044;-64
2024/03/23 09:45:40;;;;;;;8.43;2.70;;;8.20;99.90;;;;;;5076996;28;20041;-64
2024/03/23 09:48:08;;;;;;;12.07;1.83;;;8.10;99.90;;;;;;5074272;28;20054;-65
2024/03/23 09:50:34;;;;;;;7.60;1.33;;;8.00;99.90;;;;;;5054453;28;20103;-64
2024/03/23 09:53:01;;;;;;;9.77;1.50;;;7.80;99.90;;;;;;5076119;28;20032;-64
2024/03/23 09:55:28;;;;;;;6.78;1.60;;;7.60;99.90;;;;;;5080451;28;20050;-64
2024/03/23 09:57:53;;;;;;;8.15;1.35;;;7.50;99.90;;;;;;5060865;28;20119;-64
2024/03/23 10:00:19;;;;;;;10.02;1.65;;;7.40;99.90;;;;;;5075685;28;20044;-64
2024/03/23 10:02:45;;;;;;;9.65;1.20;;;7.30;99.90;;;;;;5061330;28;20076;-64
2024/03/23 10:05:24;;;;;;;9.40;1.80;;;7.20;99.90;;;;;;5058109;28;20051;-64
2024/03/23 10:07:52;;;;;;;9.45;1.80;;;7.00;99.90;;;;;;5057141;28;20487;-64
2024/03/23 10:10:18;;;;;;;7.93;1.85;;;7.00;99.90;;;;;;5076495;28;20040;-63
2024/03/23 10:12:50;;;;;;;8.15;1.70;;;6.90;99.90;;;;;;5075917;28;20148;-64
2024/03/23 10:15:19;;;;;;;6.28;1.05;;;6.90;99.90;;;;;;5074706;28;20546;-64
2024/03/23 10:17:45;;;;;;;4.78;1.02;;;6.80;99.90;;;;;;5062317;28;20089;-64
2024/03/23 10:20:13;;;;;;;7.75;1.60;;;6.80;99.90;;;;;;5059961;28;20607;-64
2024/03/23 10:22:39;;;;;;;5.38;1.02;;;6.80;99.90;;;;;;5060342;28;20075;-64
2024/03/23 10:25:10;;;;;;;5.15;0.85;;;7.00;99.90;;;;;;5060879;28;20441;-64
2024/03/23 10:27:36;;;;;;;8.93;1.75;;;7.50;99.90;;;;;;5079252;28;20056;-64
2024/03/23 10:30:12;;;;;;;6.03;0.88;;;8.00;99.90;;;;;;5061157;28;20424;-64
2024/03/23 10:32:38;;;;;;;9.98;1.92;;;8.40;99.90;;;;;;5077238;28;20478;-64
2024/03/23 10:35:18;;;;;;;8.32;0.82;;;8.70;99.90;;;;;;5054546;28;20494;-64
2024/03/23 10:37:46;;;;;;;4.25;0.98;;;9.10;99.90;;;;;;5062390;28;20045;-64
2024/03/23 10:40:12;;;;;;;9.20;1.55;;;9.30;99.90;;;;;;5061495;28;20082;-64
2024/03/23 10:42:41;;;;;;;5.65;0.70;;;9.50;99.90;;;;;;5077307;28;20029;-65
2024/03/23 10:45:07;;;;;;;10.80;2.50;;;9.70;99.90;;;;;;5076910;28;20043;-64
2024/03/23 10:47:37;;;;;;;6.93;1.35;;;10.00;99.90;;;;;;5075225;28;20043;-64
2024/03/23 10:50:06;;;;;;;6.97;0.90;;;10.40;99.90;;;;;;5075807;28;20074;-64
2024/03/23 10:52:36;;;;;;;3.17;0.65;;;10.40;99.90;;;;;;5077194;28;20368;-64
2024/03/23 10:55:06;;;;;;;3.35;0.57;;;10.00;99.90;;;;;;5079647;28;20087;-64
2024/03/23 10:57:58;;;;;;;2.85;0.43;;;9.40;99.90;;;;;;5056222;28;20477;-64
2024/03/23 11:00:25;;;;;;;3.58;0.70;;;8.90;99.90;;;;;;5075857;28;20067;-65
2024/03/23 11:02:51;;;;;;;2.78;0.57;;;8.40;99.90;;;;;;5079583;28;20032;-64
2024/03/23 11:05:26;;;;;;;3.42;1.02;;;8.20;99.90;;;;;;5078194;28;20500;-64
2024/03/23 11:07:52;;;;;;;2.67;0.32;;;8.00;99.90;;;;;;5076467;28;20036;-64
2024/03/23 11:10:29;;;;;;;3.60;0.65;;;7.90;99.90;;;;;;5072900;28;20040;-64
2024/03/23 11:12:56;;;;;;;5.55;1.00;;;7.80;99.90;;;;;;5074999;28;20087;-64
2024/03/23 11:15:22;;;;;;;5.95;0.95;;;7.90;99.90;;;;;;5090344;28;20056;-64
2024/03/23 11:18:08;;;;;;;6.70;1.42;;;8.20;99.90;;;;;;5058431;28;20598;-64
2024/03/23 11:20:39;;;;;;;9.45;0.98;;;8.30;99.90;;;;;;5075392;28;20040;-64
2024/03/23 11:23:05;;;;;;;5.65;0.90;;;8.40;99.90;;;;;;5072870;28;20054;-64
2024/03/23 11:25:30;;;;;;;5.60;1.00;;;8.30;99.90;;;;;;5055692;28;20044;-64
2024/03/23 11:28:12;;;;;;;3.72;0.50;;;8.40;99.90;;;;;;5058645;28;20044;-64
2024/03/23 11:30:40;;;;;;;5.25;0.75;;;8.80;99.90;;;;;;5071277;28;20410;-64
2024/03/23 11:33:06;;;;;;;4.57;0.80;;;9.30;99.90;;;;;;5072794;28;20092;-64
2024/03/23 11:35:37;;;;;;;7.53;0.70;;;9.60;99.90;;;;;;5075355;28;20127;-64
2024/03/23 11:38:13;;;;;;;6.10;1.08;;;9.70;99.90;;;;;;5054008;28;20103;-65
2024/03/23 11:40:39;;;;;;;;;;;9.80;99.90;;;;;;5074485;28;20050;-64
2024/03/23 11:43:06;;;;;;;4.07;0.95;;;9.90;99.90;;;;;;5058955;28;19920;-64
2024/03/23 11:45:37;;;;;;;4.95;1.23;;;10.10;99.90;;;;;;5078036;28;20030;-64
2024/03/23 11:48:13;;;;;;;7.20;1.30;;;10.40;99.90;;;;;;5072416;28;20127;-65
2024/03/23 11:50:43;;;;;;;6.10;1.30;;;10.60;99.90;;;;;;5071215;28;20059;-64
2024/03/23 11:53:15;;;;;;;5.53;0.90;;;10.70;99.90;;;;;;5040761;28;20048;-64
2024/03/23 11:55:58;;;;;;;6.70;1.08;;;10.80;99.90;;;;;;5087787;28;20044;-64
2024/03/23 11:58:26;;;;;;;8.30;1.17;;;11.00;99.90;;;;;;5058577;28;20063;-64
2024/03/23 12:00:52;;;;;;;8.10;1.10;;;11.10;99.90;;;;;;5074914;28;20482;-64
2024/03/23 12:03:21;;;;;;;2.13;0.60;;;10.90;99.90;;;;;;5055756;28;20094;-64
2024/03/23 12:05:53;;;;;;;1.90;0.45;;;10.80;99.90;;;;;;5055738;28;20051;-64
2024/03/23 12:08:28;;;;;;;2.70;0.25;;;10.70;99.90;;;;;;5075886;28;20391;-64
2024/03/23 12:11:16;;;;;;;1.50;0.28;;;10.90;99.90;;;;;;5075684;28;20046;-64
2024/03/23 12:13:46;;;;;;;7.20;0.50;;;10.90;99.90;;;;;;5055754;28;20036;-64
2024/03/23 12:16:20;;;;;;;2.85;0.55;;;10.80;99.90;;;;;;5059883;28;20068;-64
2024/03/23 12:18:47;;;;;;;4.47;0.70;;;10.90;99.90;;;;;;5073620;28;20039;-64
2024/03/23 12:21:13;;;;;;;4.65;0.70;;;11.00;99.90;;;;;;5054427;28;20041;-64
2024/03/23 12:23:40;;;;;;;4.82;1.38;;;11.00;99.90;;;;;;5058421;28;20042;-64
2024/03/23 12:26:06;;;;;;;7.03;1.08;;;11.00;99.90;;;;;;5074868;28;20053;-64
2024/03/23 12:28:33;;;;;;;9.68;1.80;;;11.10;99.90;;;;;;5072324;28;20040;-64
2024/03/23 12:30:58;;;;;;;9.65;2.15;;;11.20;99.90;;;;;;5057565;28;20036;-64
2024/03/23 12:33:24;;;;;;;5.00;1.52;;;11.00;99.90;;;;;;5054356;28;20036;-64
2024/03/23 12:35:50;;;;;;;9.70;2.33;;;10.60;99.90;;;;;;5052927;28;20053;-64
2024/03/23 12:38:17;;;;;;;8.25;1.15;;;10.40;99.90;;;;;;5072726;28;20419;-64
2024/03/23 12:40:51;;;;;;;7.13;1.15;;;10.10;99.90;;;;;;5052972;28;20041;-64
2024/03/23 12:43:17;;;;;;;5.18;1.55;;;9.80;99.90;;;;;;5057553;28;20044;-64
2024/03/23 12:45:47;;;;;;;6.68;1.70;;;9.70;99.90;;;;;;5071542;28;20115;-64
2024/03/23 12:48:13;;;;;;;6.68;1.20;;;9.90;99.90;;;;;;5073036;28;20659;-64
2024/03/23 12:50:38;;;;;;;5.70;1.40;;;10.10;99.90;;;;;;5076012;28;20075;-64
2024/03/23 12:53:04;;;;;;;9.63;1.88;;;10.30;99.90;;;;;;5059446;28;20051;-64